createdAt,value
2023-05-10T00:00:18.487Z,99716.03
2023-05-10T00:02:46.654Z,99709.13
2023-05-10T00:05:14.698Z,99709.34
2023-05-10T00:07:45.700Z,99707.28
2023-05-10T00:10:14.314Z,99709.25
2023-05-10T00:12:42.414Z,99710.94
2023-05-10T00:15:11.055Z,99705.06
2023-05-10T00:17:40.265Z,99705.69
2023-05-10T00:20:09.094Z,99707.47
2023-05-10T00:22:36.789Z,99709.34
2023-05-10T00:25:04.795Z,99704.53
2023-05-10T00:27:32.985Z,99715.81
2023-05-10T00:30:00.920Z,99712.06
2023-05-10T00:32:28.783Z,99712.34
2023-05-10T00:34:58.660Z,99712.44
2023-05-10T00:37:26.503Z,99711.09
2023-05-10T00:39:54.632Z,99708.47
2023-05-10T00:42:23.421Z,99705.75
2023-05-10T00:44:53.467Z,99698.75
2023-05-10T00:47:21.551Z,99704.06
2023-05-10T00:49:50.882Z,99702.50
2023-05-10T00:52:20.268Z,99708.84
2023-05-10T00:54:49.933Z,99703.81
2023-05-10T00:57:18.321Z,99712.50
2023-05-10T00:59:46.242Z,99706.25
2023-05-10T01:02:15.808Z,99713.22
2023-05-10T01:04:44.908Z,99718.75
2023-05-10T01:07:13.337Z,99713.34
2023-05-10T01:09:42.746Z,99710.75
2023-05-10T01:12:11.794Z,99716.06
2023-05-10T01:14:41.823Z,99714.63
2023-05-10T01:17:12.009Z,99715.56
2023-05-10T01:19:40.361Z,99718.09
2023-05-10T01:22:35.364Z,99718.91
2023-05-10T01:25:51.892Z,99725.16
2023-05-10T01:28:40.531Z,99722.66
2023-05-10T01:31:24.739Z,99728.63
2023-05-10T01:34:00.041Z,99733.13
2023-05-10T01:36:32.725Z,99729.75
2023-05-10T01:39:06.292Z,99736.03
2023-05-10T01:41:42.558Z,99737.78
2023-05-10T01:44:18.742Z,99732.78
2023-05-10T01:46:53.992Z,99743.59
2023-05-10T01:49:27.919Z,99740.34
2023-05-10T01:52:01.156Z,99736.53
2023-05-10T01:54:31.112Z,99741.09
2023-05-10T01:57:04.049Z,99749.09
2023-05-10T01:59:37.146Z,99745.00
2023-05-10T02:02:06.959Z,99744.38
2023-05-10T02:04:39.530Z,99745.84
2023-05-10T02:07:08.680Z,99746.78
2023-05-10T02:09:39.031Z,99752.91
2023-05-10T02:12:09.600Z,99750.75
2023-05-10T02:14:38.966Z,99752.09
2023-05-10T02:17:10.895Z,99748.53
2023-05-10T02:19:42.752Z,99746.88
2023-05-10T02:22:11.759Z,99751.34
2023-05-10T02:24:42.080Z,99757.50
2023-05-10T02:27:12.033Z,99750.03
2023-05-10T02:29:40.902Z,99755.91
2023-05-10T02:32:09.795Z,99754.31
2023-05-10T02:34:40.869Z,99761.13
2023-05-10T02:37:09.802Z,99750.63
2023-05-10T02:39:39.411Z,99761.88
2023-05-10T02:42:08.294Z,99757.41
2023-05-10T02:44:39.358Z,99756.72
2023-05-10T02:47:07.448Z,99762.91
2023-05-10T02:49:35.901Z,99761.69
2023-05-10T02:52:09.996Z,99764.28
2023-05-10T02:54:52.232Z,99761.59
2023-05-10T02:57:26.992Z,99757.03
2023-05-10T02:59:54.838Z,99760.47
2023-05-10T03:02:22.774Z,99757.88
2023-05-10T03:04:51.280Z,99763.00
2023-05-10T03:07:22.326Z,99764.84
2023-05-10T03:09:51.109Z,99766.81
2023-05-10T03:12:29.394Z,99768.94
2023-05-10T03:15:02.989Z,99771.19
2023-05-10T03:17:34.630Z,99769.75
2023-05-10T03:20:06.528Z,99769.22
2023-05-10T03:22:39.974Z,99765.97
2023-05-10T03:25:11.180Z,99768.66
2023-05-10T03:27:43.788Z,99775.38
2023-05-10T03:30:14.999Z,99778.09
2023-05-10T03:32:43.419Z,99772.88
2023-05-10T03:35:12.583Z,99776.78
2023-05-10T03:37:42.201Z,99775.38
2023-05-10T03:40:11.066Z,99772.03
2023-05-10T03:42:41.919Z,99773.53
2023-05-10T03:45:11.666Z,99776.34
2023-05-10T03:47:39.452Z,99771.75
2023-05-10T03:50:08.564Z,99768.03
2023-05-10T03:52:36.355Z,99774.56
2023-05-10T03:55:06.615Z,99777.72
2023-05-10T03:57:34.731Z,99774.19
2023-05-10T04:00:02.656Z,99781.19
2023-05-10T04:02:42.157Z,99787.63
2023-05-10T04:05:14.806Z,99789.59
2023-05-10T04:07:43.015Z,99786.00
2023-05-10T04:10:13.479Z,99787.91
2023-05-10T04:12:41.399Z,99783.31
2023-05-10T04:15:10.525Z,99784.44
2023-05-10T04:17:38.648Z,99790.78
2023-05-10T04:20:08.312Z,99793.00
2023-05-10T04:22:36.146Z,99787.88
2023-05-10T04:25:04.204Z,99799.34
2023-05-10T04:27:33.193Z,99791.84
2023-05-10T04:30:01.476Z,99793.06
2023-05-10T04:32:29.306Z,99794.75
2023-05-10T04:34:57.394Z,99797.72
2023-05-10T04:37:25.074Z,99796.78
2023-05-10T04:39:52.955Z,99799.28
2023-05-10T04:42:20.812Z,99798.38
2023-05-10T04:44:50.152Z,99801.81
2023-05-10T04:47:17.982Z,99810.03
2023-05-10T04:49:45.751Z,99811.03
2023-05-10T04:52:13.844Z,99812.22
2023-05-10T04:54:41.494Z,99814.72
2023-05-10T04:57:09.248Z,99823.31
2023-05-10T04:59:38.115Z,99820.28
2023-05-10T05:02:07.383Z,99823.78
2023-05-10T05:04:35.234Z,99834.16
2023-05-10T05:07:03.922Z,99836.75
2023-05-10T05:09:32.970Z,99837.59
2023-05-10T05:12:01.355Z,99840.09
2023-05-10T05:14:29.735Z,99841.53
2023-05-10T05:16:58.120Z,99850.75
2023-05-10T05:19:27.301Z,99850.75
2023-05-10T05:21:56.097Z,99854.03
2023-05-10T05:24:24.040Z,99858.97
2023-05-10T05:26:52.059Z,99855.34
2023-05-10T05:29:19.789Z,99859.53
2023-05-10T05:31:47.563Z,99849.41
2023-05-10T05:34:15.203Z,99849.22
2023-05-10T05:36:44.480Z,99845.97
2023-05-10T05:39:12.154Z,99843.53
2023-05-10T05:41:39.871Z,99843.34
2023-05-10T05:44:07.890Z,99844.78
2023-05-10T05:46:36.013Z,99847.94
2023-05-10T05:49:04.737Z,99836.47
2023-05-10T05:51:33.169Z,99842.56
2023-05-10T05:54:02.769Z,99848.72
2023-05-10T05:56:30.670Z,99852.91
2023-05-10T05:58:59.085Z,99852.72
2023-05-10T06:01:26.795Z,99851.59
2023-05-10T06:03:54.978Z,99854.22
2023-05-10T06:06:22.798Z,99856.66
2023-05-10T06:08:50.496Z,99870.19
2023-05-10T06:11:19.989Z,99866.91
2023-05-10T06:13:48.042Z,99871.94
2023-05-10T06:16:16.107Z,99871.75
2023-05-10T06:18:43.826Z,99878.91
2023-05-10T06:21:11.589Z,99876.47
2023-05-10T06:23:39.392Z,99878.06
2023-05-10T06:26:12.682Z,99880.06
2023-05-10T06:28:43.604Z,99878.84
2023-05-10T06:31:16.299Z,99877.34
2023-05-10T06:33:44.237Z,99881.25
2023-05-10T06:36:12.280Z,99877.94
2023-05-10T06:38:40.405Z,99876.25
2023-05-10T06:41:08.303Z,99877.19
2023-05-10T06:43:35.993Z,99878.03
2023-05-10T06:46:05.486Z,99878.69
2023-05-10T06:48:33.438Z,99891.00
2023-05-10T06:51:01.704Z,99880.75
2023-05-10T06:53:29.553Z,99883.50
2023-05-10T06:55:57.712Z,99878.19
2023-05-10T06:58:25.624Z,99873.38
2023-05-10T07:00:53.447Z,99881.88
2023-05-10T07:03:23.441Z,99880.25
2023-05-10T07:05:51.157Z,99880.06
2023-05-10T07:08:19.164Z,99883.81
2023-05-10T07:10:47.827Z,99879.72
2023-05-10T07:13:16.234Z,99878.88
2023-05-10T07:15:44.304Z,99893.19
2023-05-10T07:18:12.111Z,99893.84
2023-05-10T07:20:42.498Z,99904.09
2023-05-10T07:23:10.370Z,99906.25
2023-05-10T07:25:38.900Z,99917.09
2023-05-10T07:28:06.703Z,99912.63
2023-05-10T07:30:34.724Z,99914.91
2023-05-10T07:33:02.886Z,99916.38
2023-05-10T07:35:31.880Z,99920.00
2023-05-10T07:38:01.021Z,99913.47
2023-05-10T07:40:28.945Z,99916.09
2023-05-10T07:42:57.007Z,99905.91
2023-05-10T07:45:25.033Z,99912.41
2023-05-10T07:47:52.790Z,99914.81
2023-05-10T07:50:22.558Z,99915.75
2023-05-10T07:52:50.247Z,99910.13
2023-05-10T07:55:20.697Z,99912.53
2023-05-10T07:57:48.705Z,99911.63
2023-05-10T08:00:20.394Z,99917.41
2023-05-10T08:02:48.600Z,99912.91
2023-05-10T08:05:16.878Z,99911.97
2023-05-10T08:07:45.131Z,99913.31
2023-05-10T08:10:13.224Z,99912.16
2023-05-10T08:12:42.484Z,99911.22
2023-05-10T08:15:11.379Z,99911.22
2023-05-10T08:17:42.035Z,99910.81
2023-05-10T08:20:10.465Z,99910.91
2023-05-10T08:22:38.460Z,99920.00
2023-05-10T08:25:07.310Z,99912.44
2023-05-10T08:27:34.994Z,99904.28
2023-05-10T08:30:04.316Z,99913.81
2023-05-10T08:32:31.999Z,99916.97
2023-05-10T08:34:59.704Z,99915.56
2023-05-10T08:37:27.679Z,99924.50
2023-05-10T08:39:55.449Z,99924.09
2023-05-10T08:42:28.650Z,99924.50
2023-05-10T08:44:58.452Z,99933.13
2023-05-10T08:47:28.449Z,99927.72
2023-05-10T08:49:57.127Z,99929.59
2023-05-10T08:52:29.070Z,99930.16
2023-05-10T08:54:56.957Z,99941.78
2023-05-10T08:57:24.701Z,99933.34
2023-05-10T08:59:52.538Z,99935.59
2023-05-10T09:02:21.909Z,99937.81
2023-05-10T09:04:51.573Z,99935.91
2023-05-10T09:07:20.000Z,99946.16
2023-05-10T09:09:48.425Z,99947.56
2023-05-10T09:12:17.192Z,99958.38
2023-05-10T09:14:47.533Z,99955.34
2023-05-10T09:17:15.531Z,99952.25
2023-05-10T09:19:43.194Z,99949.81
2023-05-10T09:22:12.616Z,99949.13
2023-05-10T09:24:43.409Z,99940.25
2023-05-10T09:27:11.627Z,99949.03
2023-05-10T09:29:43.752Z,99954.22
2023-05-10T09:32:13.576Z,99943.94
2023-05-10T09:34:42.858Z,99937.66
2023-05-10T09:37:12.175Z,99945.66
2023-05-10T09:39:40.512Z,99941.97
2023-05-10T09:42:10.093Z,99957.09
2023-05-10T09:44:38.924Z,99959.50
2023-05-10T09:47:06.972Z,99964.19
2023-05-10T09:49:35.201Z,99956.81
2023-05-10T09:52:05.024Z,99956.56
2023-05-10T09:54:34.912Z,99964.06
2023-05-10T09:57:02.976Z,99964.03
2023-05-10T09:59:32.018Z,99968.50
2023-05-10T10:02:01.620Z,99968.69
2023-05-10T10:04:30.014Z,99966.25
2023-05-10T10:07:03.526Z,99963.69
2023-05-10T10:09:31.778Z,99967.34
2023-05-10T10:12:01.311Z,99964.06
2023-05-10T10:14:29.382Z,99956.56
2023-05-10T10:17:07.505Z,99957.38
2023-05-10T10:19:37.657Z,99955.19
2023-05-10T10:22:06.782Z,99964.06
2023-05-10T10:24:34.829Z,99956.31
2023-05-10T10:27:11.209Z,99951.16
2023-05-10T10:29:46.709Z,99939.28
2023-05-10T10:32:24.571Z,99942.97
2023-05-10T10:34:53.049Z,99943.19
2023-05-10T10:37:21.269Z,99948.84
2023-05-10T10:39:50.648Z,99947.88
2023-05-10T10:42:50.824Z,99964.66
2023-05-10T10:45:20.002Z,99953.41
2023-05-10T10:47:48.198Z,99958.09
2023-05-10T10:50:17.552Z,99946.09
2023-05-10T10:52:46.421Z,99928.53
2023-05-10T10:55:15.643Z,99930.97
2023-05-10T10:57:48.756Z,99934.97
2023-05-10T11:00:26.511Z,99934.19
2023-05-10T11:02:55.827Z,99927.41
2023-05-10T11:05:48.840Z,99949.47
2023-05-10T11:08:19.958Z,99944.34
2023-05-10T11:11:04.288Z,99939.66
2023-05-10T11:13:34.408Z,99942.69
2023-05-10T11:16:16.599Z,99944.59
2023-05-10T11:18:55.188Z,99951.94
2023-05-10T11:21:23.579Z,99952.47
2023-05-10T11:23:53.319Z,99945.78
2023-05-10T11:26:24.275Z,99946.59
2023-05-10T11:28:52.232Z,99946.28
2023-05-10T11:31:22.338Z,99950.53
2023-05-10T11:33:51.548Z,99951.69
2023-05-10T11:36:21.342Z,99946.16
2023-05-10T11:38:50.032Z,99940.63
2023-05-10T11:41:20.139Z,99943.22
2023-05-10T11:43:49.879Z,99934.56
2023-05-10T11:46:18.367Z,99930.97
2023-05-10T11:48:49.086Z,99930.13
2023-05-10T11:51:17.271Z,99942.34
2023-05-10T11:53:45.138Z,99938.34
2023-05-10T11:56:13.649Z,99936.50
2023-05-10T11:58:41.921Z,99949.28
2023-05-10T12:01:11.620Z,99959.22
2023-05-10T12:03:42.930Z,99963.91
2023-05-10T12:06:12.365Z,99965.69
2023-05-10T12:08:46.852Z,99967.16
2023-05-10T12:11:16.345Z,99964.63
2023-05-10T12:13:47.462Z,99967.22
2023-05-10T12:16:16.262Z,99966.31
2023-05-10T12:18:44.464Z,99953.63
2023-05-10T12:21:14.330Z,99957.69
2023-05-10T12:23:42.372Z,99963.84
2023-05-10T12:26:11.703Z,99953.00
2023-05-10T12:28:40.570Z,99956.53
2023-05-10T12:31:09.118Z,99978.88
2023-05-10T12:33:42.774Z,99973.22
2023-05-10T12:36:11.412Z,99974.53
2023-05-10T12:38:44.365Z,99973.31
2023-05-10T12:41:13.567Z,99982.16
2023-05-10T12:43:42.046Z,99983.41
2023-05-10T12:46:11.275Z,99990.63
2023-05-10T12:48:40.583Z,99986.50
2023-05-10T12:51:10.208Z,99983.00
2023-05-10T12:53:38.299Z,99982.03
2023-05-10T12:56:08.256Z,99989.25
2023-05-10T12:58:36.400Z,99995.63
2023-05-10T13:01:05.884Z,100001.06
2023-05-10T13:03:33.885Z,100001.56
2023-05-10T13:06:04.658Z,100000.84
2023-05-10T13:08:34.668Z,99995.41
2023-05-10T13:11:02.736Z,100004.53
2023-05-10T13:13:31.981Z,99992.47
2023-05-10T13:16:00.054Z,99995.22
2023-05-10T13:18:28.334Z,100001.22
2023-05-10T13:20:56.779Z,99982.13
2023-05-10T13:23:25.000Z,99988.00
2023-05-10T13:25:53.005Z,99984.53
2023-05-10T13:28:21.050Z,99973.75
2023-05-10T13:30:50.124Z,99970.25
2023-05-10T13:33:17.843Z,99965.59
2023-05-10T13:35:46.053Z,99976.97
2023-05-10T13:38:14.588Z,99967.00
2023-05-10T13:40:42.736Z,99965.50
2023-05-10T13:43:10.596Z,99976.28
2023-05-10T13:45:38.360Z,99976.16
2023-05-10T13:48:07.866Z,99969.53
2023-05-10T13:50:35.735Z,99973.63
2023-05-10T13:53:03.540Z,99976.06
2023-05-10T13:55:31.643Z,99977.69
2023-05-10T13:57:59.306Z,99974.72
2023-05-10T14:00:27.862Z,99977.69
2023-05-10T14:02:55.831Z,99973.44
2023-05-10T14:05:26.252Z,99966.31
2023-05-10T14:07:54.667Z,99979.91
2023-05-10T14:10:22.689Z,99979.03
2023-05-10T14:12:50.508Z,99964.63
2023-05-10T14:15:18.683Z,99964.78
2023-05-10T14:17:46.656Z,99973.09
2023-05-10T14:20:14.537Z,99975.03
2023-05-10T14:22:43.874Z,99982.50
2023-05-10T14:25:11.645Z,99973.19
2023-05-10T14:27:39.812Z,99969.88
2023-05-10T14:30:09.152Z,99972.22
2023-05-10T14:32:37.538Z,99973.03
2023-05-10T14:35:06.932Z,99971.88
2023-05-10T14:37:35.441Z,99967.56
2023-05-10T14:40:05.499Z,99963.09
2023-05-10T14:42:34.700Z,99971.19
2023-05-10T14:45:02.826Z,99967.00
2023-05-10T14:47:31.152Z,99967.81
2023-05-10T14:49:59.161Z,99958.38
2023-05-10T14:52:27.782Z,99962.44
2023-05-10T14:54:56.219Z,99957.41
2023-05-10T14:57:25.274Z,99964.03
2023-05-10T14:59:52.952Z,99959.72
2023-05-10T15:02:21.705Z,99955.34
2023-05-10T15:04:50.066Z,99952.91
2023-05-10T15:07:19.291Z,99958.97
2023-05-10T15:09:47.111Z,99956.97
2023-05-10T15:12:14.931Z,99954.66
2023-05-10T15:14:44.511Z,99951.75
2023-05-10T15:17:13.270Z,99956.00
2023-05-10T15:19:41.198Z,99945.53
2023-05-10T15:22:08.891Z,99941.94
2023-05-10T15:24:37.433Z,99947.50
2023-05-10T15:27:05.588Z,99939.97
2023-05-10T15:29:33.458Z,99936.19
2023-05-10T15:32:03.966Z,99943.63
2023-05-10T15:34:33.641Z,99950.81
2023-05-10T15:37:03.691Z,99943.00
2023-05-10T15:39:31.633Z,99941.56
2023-05-10T15:41:59.918Z,99941.00
2023-05-10T15:44:27.623Z,99950.03
2023-05-10T15:46:56.018Z,99953.16
2023-05-10T15:49:25.181Z,99945.13
2023-05-10T15:51:53.715Z,99946.25
2023-05-10T15:54:21.634Z,99950.09
2023-05-10T15:56:49.485Z,99938.75
2023-05-10T15:59:18.304Z,99962.44
2023-05-10T16:01:46.479Z,99965.75
2023-05-10T16:04:14.891Z,99954.75
2023-05-10T16:06:44.287Z,99953.75
2023-05-10T16:09:12.103Z,99957.78
2023-05-10T16:11:40.285Z,99966.97
2023-05-10T16:14:08.278Z,99973.88
2023-05-10T16:16:36.828Z,99966.50
2023-05-10T16:19:04.748Z,99955.97
2023-05-10T16:21:33.466Z,99979.66
2023-05-10T16:24:04.149Z,99989.75
2023-05-10T16:26:32.600Z,99982.09
2023-05-10T16:29:00.551Z,99982.00
2023-05-10T16:31:28.447Z,99978.63
2023-05-10T16:33:56.453Z,99976.63
2023-05-10T16:36:24.412Z,99967.88
2023-05-10T16:38:52.602Z,99979.13
2023-05-10T16:41:23.158Z,99981.19
2023-05-10T16:43:50.911Z,99984.88
2023-05-10T16:46:19.061Z,99977.47
2023-05-10T16:48:46.962Z,99996.84
2023-05-10T16:51:14.805Z,99992.06
2023-05-10T16:53:42.797Z,99983.56
2023-05-10T16:56:11.637Z,99992.53
2023-05-10T16:58:40.689Z,99994.34
2023-05-10T17:01:08.605Z,99998.75
2023-05-10T17:03:36.993Z,100002.81
2023-05-10T17:06:06.607Z,100000.19
2023-05-10T17:08:34.812Z,100019.06
2023-05-10T17:11:03.608Z,100011.38
2023-05-10T17:13:32.029Z,100002.81
2023-05-10T17:16:03.441Z,100028.09
2023-05-10T17:18:31.790Z,100021.38
2023-05-10T17:20:59.774Z,100026.66
2023-05-10T17:23:28.318Z,100025.44
2023-05-10T17:25:56.099Z,100026.19
2023-05-10T17:28:26.871Z,100033.56
2023-05-10T17:30:58.404Z,100021.25
2023-05-10T17:33:34.538Z,100045.13
2023-05-10T17:36:02.398Z,100040.44
2023-05-10T17:38:30.110Z,100042.09
2023-05-10T17:40:57.876Z,100034.56
2023-05-10T17:43:26.136Z,100034.44
2023-05-10T17:45:54.756Z,100036.56
2023-05-10T17:48:23.255Z,100035.41
2023-05-10T17:50:52.625Z,100036.69
2023-05-10T17:53:20.654Z,100042.25
2023-05-10T17:55:48.640Z,100032.31
2023-05-10T17:58:16.407Z,100038.88
2023-05-10T18:00:44.929Z,100037.91
2023-05-10T18:03:12.876Z,100038.69
2023-05-10T18:05:40.750Z,100040.50
2023-05-10T18:08:10.131Z,100045.13
2023-05-10T18:10:41.216Z,100050.28
2023-05-10T18:13:09.757Z,100043.78
2023-05-10T18:15:37.490Z,100038.75
2023-05-10T18:18:06.010Z,100053.84
2023-05-10T18:20:33.787Z,100047.38
2023-05-10T18:23:01.673Z,100048.22
2023-05-10T18:25:31.175Z,100038.94
2023-05-10T18:28:00.203Z,100049.44
2023-05-10T18:30:28.074Z,100050.53
2023-05-10T18:32:56.242Z,100056.28
2023-05-10T18:35:23.955Z,100055.97
2023-05-10T18:37:53.251Z,100060.31
2023-05-10T18:40:21.086Z,100056.50
2023-05-10T18:42:51.007Z,100064.94
2023-05-10T18:45:19.305Z,100060.59
2023-05-10T18:47:47.375Z,100067.34
2023-05-10T18:50:16.938Z,100073.88
2023-05-10T18:52:45.451Z,100066.66
2023-05-10T18:55:13.578Z,100080.22
2023-05-10T18:57:42.479Z,100070.66
2023-05-10T19:00:13.229Z,100092.59
2023-05-10T19:02:41.844Z,100088.00
2023-05-10T19:05:10.662Z,100093.84
2023-05-10T19:07:39.559Z,100087.97
2023-05-10T19:10:08.422Z,100099.00
2023-05-10T19:12:37.442Z,100097.06
2023-05-10T19:15:06.059Z,100102.56
2023-05-10T19:17:36.493Z,100106.69
2023-05-10T19:20:05.610Z,100111.41
2023-05-10T19:22:47.258Z,100109.63
2023-05-10T19:25:21.499Z,100113.06
2023-05-10T19:27:49.239Z,100108.88
2023-05-10T19:30:17.034Z,100118.09
2023-05-10T19:32:46.354Z,100117.84
2023-05-10T19:35:14.225Z,100122.44
2023-05-10T19:37:45.877Z,100127.84
2023-05-10T19:40:15.609Z,100128.53
2023-05-10T19:42:44.274Z,100129.97
2023-05-10T19:45:15.498Z,100130.53
2023-05-10T19:47:44.317Z,100138.13
2023-05-10T19:50:13.866Z,100139.25
2023-05-10T19:52:42.442Z,100141.34
2023-05-10T19:55:10.625Z,100138.44
2023-05-10T19:57:38.780Z,100142.94
2023-05-10T20:00:08.061Z,100141.31
2023-05-10T20:02:39.448Z,100141.53
2023-05-10T20:05:08.464Z,100154.22
2023-05-10T20:07:37.520Z,100152.63
2023-05-10T20:10:06.323Z,100155.69
2023-05-10T20:12:34.277Z,100145.06
2023-05-10T20:15:02.101Z,100152.91
2023-05-10T20:17:30.035Z,100154.09
2023-05-10T20:19:58.625Z,100154.50
2023-05-10T20:22:26.941Z,100156.53
2023-05-10T20:24:57.404Z,100152.03
2023-05-10T20:27:25.464Z,100155.78
2023-05-10T20:29:53.529Z,100159.06
2023-05-10T20:32:21.454Z,100163.66
2023-05-10T20:34:49.644Z,100162.88
2023-05-10T20:37:17.746Z,100162.31
2023-05-10T20:39:50.296Z,100167.16
2023-05-10T20:42:19.724Z,100167.25
2023-05-10T20:44:47.968Z,100162.38
2023-05-10T20:47:16.794Z,100164.00
2023-05-10T20:49:44.955Z,100165.44
2023-05-10T20:52:12.812Z,100162.91
2023-05-10T20:54:40.623Z,100168.59
2023-05-10T20:57:08.740Z,100166.88
2023-05-10T20:59:38.305Z,100168.59
2023-05-10T21:02:06.369Z,100164.53
2023-05-10T21:04:34.156Z,100171.13
2023-05-10T21:07:02.301Z,100166.94
2023-05-10T21:09:30.058Z,100170.63
2023-05-10T21:11:58.878Z,100164.66
2023-05-10T21:14:27.043Z,100174.06
2023-05-10T21:16:56.057Z,100158.72
2023-05-10T21:19:23.938Z,100167.16
2023-05-10T21:21:52.306Z,100163.28
2023-05-10T21:24:20.052Z,100169.00
2023-05-10T21:26:47.838Z,100164.97
2023-05-10T21:29:15.652Z,100165.72
2023-05-10T21:31:44.345Z,100169.94
2023-05-10T21:34:14.040Z,100171.03
2023-05-10T21:36:41.813Z,100170.19
2023-05-10T21:39:10.012Z,100171.78
2023-05-10T21:41:37.940Z,100175.50
2023-05-10T21:44:06.829Z,100177.75
2023-05-10T21:46:34.549Z,100175.22
2023-05-10T21:49:02.242Z,100177.59
2023-05-10T21:51:31.284Z,100183.81
2023-05-10T21:53:59.398Z,100175.59
2023-05-10T21:56:27.220Z,100176.81
2023-05-10T21:58:54.869Z,100179.81
2023-05-10T22:01:22.755Z,100182.41
2023-05-10T22:03:50.618Z,100178.69
2023-05-10T22:06:18.509Z,100180.03
2023-05-10T22:08:47.980Z,100177.38
2023-05-10T22:11:16.036Z,100180.41
2023-05-10T22:13:44.493Z,100182.63
2023-05-10T22:16:12.200Z,100184.00
2023-05-10T22:18:40.011Z,100181.94
2023-05-10T22:21:10.281Z,100180.25
2023-05-10T22:23:38.207Z,100182.63
2023-05-10T22:26:07.857Z,100180.34
2023-05-10T22:28:36.399Z,100178.97
2023-05-10T22:31:06.882Z,100178.13
2023-05-10T22:33:34.863Z,100188.66
2023-05-10T22:36:02.623Z,100188.03
2023-05-10T22:38:30.517Z,100191.25
2023-05-10T22:40:58.768Z,100188.97
2023-05-10T22:43:29.435Z,100186.50
2023-05-10T22:45:57.728Z,100184.06
2023-05-10T22:48:25.714Z,100193.84
2023-05-10T22:50:53.703Z,100184.56
2023-05-10T22:53:21.893Z,100180.91
2023-05-10T22:55:49.697Z,100187.16
2023-05-10T22:58:17.892Z,100188.03
2023-05-10T23:00:47.527Z,100188.03
2023-05-10T23:03:16.083Z,100200.41
2023-05-10T23:05:44.023Z,100198.56
2023-05-10T23:08:13.516Z,100194.31
2023-05-10T23:10:41.190Z,100201.03
2023-05-10T23:13:09.004Z,100201.34
2023-05-10T23:15:37.680Z,100202.88
2023-05-10T23:18:08.390Z,100194.94
2023-05-10T23:20:36.417Z,100196.06
2023-05-10T23:23:05.028Z,100203.03
2023-05-10T23:25:32.795Z,100201.66
2023-05-10T23:28:00.683Z,100207.34
2023-05-10T23:30:28.528Z,100205.22
2023-05-10T23:32:56.586Z,100206.84
2023-05-10T23:35:26.402Z,100210.22
2023-05-10T23:37:54.583Z,100210.44
2023-05-10T23:40:22.434Z,100215.09
2023-05-10T23:42:50.195Z,100216.59
2023-05-10T23:45:18.284Z,100215.66
2023-05-10T23:47:48.253Z,100225.09
2023-05-10T23:50:16.242Z,100222.13
2023-05-10T23:52:45.569Z,100218.63
2023-05-10T23:55:13.626Z,100220.16
2023-05-10T23:57:41.667Z,100215.00
